Time;durP1;ratioP1;P1;durP2;ratioP2;P2;SDS_P1;SDS_P2;PMS_P1;PMS_P2;Temp;Humidity;BMP_temperature;BMP_pressure;BME280_temperature;BME280_humidity;BME280_pressure;Samples;Min_cycle;Max_cycle;Signal;HPM_P1;HPM_P2
2022/11/07 00:00:24;;;;;;;;;9.75;9.75;;;;;10.24;87.10;100482.66;5040266;28;10843;-66
2022/11/07 00:02:51;;;;;;;;;8.25;8.25;;;;;10.25;86.93;100480.81;5026005;28;10984;-66
2022/11/07 00:05:18;;;;;;;;;8.50;8.50;;;;;10.26;87.29;100483.31;5025809;28;10168;-66
2022/11/07 00:07:44;;;;;;;;;9.00;7.25;;;;;10.36;86.86;100483.75;5013815;28;10148;-67
2022/11/07 00:10:10;;;;;;;;;12.00;9.25;;;;;10.44;86.55;100493.53;5028935;28;10100;-66
2022/11/07 00:12:37;;;;;;;;;7.00;7.00;;;;;10.38;86.59;100488.97;5026306;28;10191;-66
2022/11/07 00:15:04;;;;;;;;;7.50;6.75;;;;;10.32;86.68;100495.13;5022640;28;10151;-66
2022/11/07 00:17:31;;;;;;;;;8.50;6.75;;;;;10.35;86.85;100497.44;5029970;28;10069;-66
2022/11/07 00:19:57;;;;;;;;;8.00;8.00;;;;;10.40;86.82;100503.84;5041783;28;10121;-66
2022/11/07 00:22:23;;;;;;;;;5.00;5.00;;;;;10.44;86.48;100509.66;5042941;28;10014;-66
2022/11/07 00:24:50;;;;;;;;;11.00;9.00;;;;;10.48;86.57;100502.03;5008169;28;9965;-66
2022/11/07 00:27:16;;;;;;;;;4.50;4.50;;;;;10.48;86.32;100504.72;5031339;28;10080;-67
2022/11/07 00:29:43;;;;;;;;;6.00;5.50;;;;;10.37;86.43;100506.13;5032862;28;9943;-67
2022/11/07 00:32:09;;;;;;;;;6.50;5.00;;;;;10.44;86.65;100514.22;5029625;28;10018;-67
2022/11/07 00:34:35;;;;;;;;;5.00;5.00;;;;;10.40;86.46;100506.53;5028470;28;10238;-67
2022/11/07 00:37:02;;;;;;;;;7.25;7.00;;;;;10.43;86.30;100509.88;5022817;28;10086;-65
2022/11/07 00:39:28;;;;;;;;;6.75;5.50;;;;;10.47;86.62;100513.84;5023286;28;10088;-65
2022/11/07 00:41:55;;;;;;;;;5.75;5.00;;;;;10.45;86.33;100511.34;5030569;28;10035;-66
2022/11/07 00:44:21;;;;;;;;;6.50;6.50;;;;;10.42;86.15;100513.63;5034995;28;9917;-66
2022/11/07 00:46:48;;;;;;;;;2.75;2.75;;;;;10.42;86.27;100517.13;5028869;28;10094;-65
2022/11/07 00:49:14;;;;;;;;;3.50;3.00;;;;;10.49;86.13;100517.13;5023465;28;9999;-66
2022/11/07 00:51:40;;;;;;;;;6.00;5.50;;;;;10.50;86.05;100516.94;5021372;28;9850;-67
2022/11/07 00:54:07;;;;;;;;;8.25;4.50;;;;;10.50;85.97;100524.19;5037966;28;9831;-67
2022/11/07 00:56:33;;;;;;;;;6.75;6.75;;;;;10.50;85.86;100522.34;5034559;28;9958;-66
2022/11/07 00:59:00;;;;;;;;;5.50;5.50;;;;;10.50;86.24;100529.59;5014834;28;9853;-66
2022/11/07 01:01:29;;;;;;;;;7.50;6.00;;;;;10.51;86.23;100531.22;5019540;28;9877;-66
2022/11/07 01:06:43;;;;;;;;;10.75;7.50;;;;;10.52;86.06;100543.66;5027747;28;10025;-65
2022/11/07 01:09:16;;;;;;;;;12.25;6.00;;;;;10.55;86.06;100544.09;5040959;28;9831;-67
2022/11/07 01:11:43;;;;;;;;;6.50;6.50;;;;;10.59;86.20;100539.13;5019293;28;10050;-66
2022/11/07 01:14:11;;;;;;;;;5.50;5.00;;;;;10.67;85.82;100546.19;5012819;28;9761;-67
2022/11/07 01:16:38;;;;;;;;;6.75;5.50;;;;;10.63;85.76;100548.47;5016839;28;9809;-67
2022/11/07 01:19:05;;;;;;;;;5.75;4.25;;;;;10.59;85.72;100548.03;5036595;28;9764;-66
2022/11/07 01:21:32;;;;;;;;;6.00;6.00;;;;;10.67;85.60;100547.03;5021019;28;9878;-66
2022/11/07 01:23:59;;;;;;;;;5.75;5.00;;;;;10.71;85.26;100545.59;5023916;28;10446;-66
2022/11/07 01:26:25;;;;;;;;;7.25;5.00;;;;;10.68;85.64;100558.63;5016805;28;9719;-67
2022/11/07 01:28:52;;;;;;;;;6.00;4.00;;;;;10.67;85.10;100559.66;5026274;28;9755;-67
2022/11/07 01:31:18;;;;;;;;;4.50;4.50;;;;;10.55;85.65;100570.16;5034475;28;9697;-67
2022/11/07 01:33:45;;;;;;;;;6.00;2.50;;;;;10.60;85.47;100573.09;5022761;28;9617;-67
2022/11/07 01:36:14;;;;;;;;;4.00;4.00;;;;;10.52;85.64;100571.38;5028022;28;9666;-66
2022/11/07 01:38:44;;;;;;;;;6.75;5.25;;;;;10.54;85.64;100563.13;5037361;28;9835;-67
2022/11/07 01:41:21;;;;;;;;;3.75;2.50;;;;;10.60;85.92;100557.75;5016026;28;9855;-67
2022/11/07 01:43:52;;;;;;;;;4.75;4.75;;;;;10.64;85.27;100564.41;5010858;28;9739;-67
2022/11/07 01:46:21;;;;;;;;;2.75;2.75;;;;;10.64;85.11;100569.78;5026509;28;9837;-67
2022/11/07 01:48:58;;;;;;;;;3.00;3.00;;;;;10.61;85.30;100580.13;5035050;28;9814;-67
2022/11/07 01:51:26;;;;;;;;;5.25;3.00;;;;;10.52;85.67;100581.31;5012619;28;9699;-67
2022/11/07 01:53:54;;;;;;;;;2.00;2.00;;;;;10.52;85.65;100571.38;5030515;28;9747;-67
2022/11/07 01:56:24;;;;;;;;;5.00;3.00;;;;;10.53;86.02;100570.38;5023378;28;9678;-67
2022/11/07 01:58:53;;;;;;;;;2.50;2.00;;;;;10.59;85.66;100590.28;5016107;28;9793;-67
2022/11/07 02:01:19;;;;;;;;;3.50;3.00;;;;;10.56;85.52;100582.59;5018085;28;9760;-67
2022/11/07 02:03:46;;;;;;;;;1.50;1.50;;;;;10.58;86.07;100580.53;5028802;28;10011;-66
2022/11/07 02:06:19;;;;;;;;;3.00;3.00;;;;;10.52;86.21;100578.63;5025826;28;9697;-67
2022/11/07 02:08:48;;;;;;;;;5.00;4.00;;;;;10.51;86.52;100595.81;5037872;28;10747;-67
2022/11/07 02:11:16;;;;;;;;;5.50;2.00;;;;;10.47;86.69;100600.78;5018269;28;10617;-67
2022/11/07 02:13:42;;;;;;;;;3.25;3.25;;;;;10.56;86.77;100596.03;5026694;28;10329;-66
2022/11/07 02:16:09;;;;;;;;;6.00;6.00;;;;;10.59;86.24;100593.78;5030349;28;9767;-67
2022/11/07 02:18:39;;;;;;;;;2.25;2.25;;;;;10.55;86.40;100591.69;5020450;28;9783;-67
2022/11/07 02:21:15;;;;;;;;;8.00;6.25;;;;;10.59;86.46;100599.16;5035577;28;9804;-67
2022/11/07 02:24:10;;;;;;;;;4.50;3.00;;;;;10.66;86.46;100599.22;5005717;28;9957;-67
2022/11/07 02:26:41;;;;;;;;;4.00;2.75;;;;;10.63;86.50;100586.97;5010559;28;9774;-66
2022/11/07 02:29:09;;;;;;;;;2.00;2.00;;;;;10.66;86.44;100593.81;5021783;28;9677;-67
2022/11/07 02:31:35;;;;;;;;;5.00;3.00;;;;;10.64;86.60;100601.25;5022578;28;9624;-67
2022/11/07 02:34:02;;;;;;;;;4.00;3.75;;;;;10.56;86.15;100593.34;5037484;28;9610;-66
2022/11/07 02:36:28;;;;;;;;;3.00;2.00;;;;;10.59;86.38;100601.03;5032850;28;9696;-66
2022/11/07 02:38:57;;;;;;;;;3.50;2.50;;;;;10.59;86.21;100590.28;5026974;28;9748;-65
2022/11/07 02:41:29;;;;;;;;;4.00;2.00;;;;;10.58;86.31;100591.31;5029060;28;9684;-65
2022/11/07 02:44:03;;;;;;;;;3.50;3.50;;;;;10.61;85.83;100593.56;5026361;28;9631;-66
2022/11/07 02:46:31;;;;;;;;;6.50;2.00;;;;;10.58;86.17;100585.94;5025120;28;9587;-67
2022/11/07 02:48:59;;;;;;;;;2.75;2.75;;;;;10.68;86.02;100586.38;5030282;28;9755;-64
2022/11/07 02:51:26;;;;;;;;;2.00;2.00;;;;;10.63;85.77;100586.97;5033436;28;9709;-65
2022/11/07 02:53:52;;;;;;;;;6.00;5.50;;;;;10.64;85.35;100580.56;5035269;28;9735;-65
2022/11/07 02:56:19;;;;;;;;;2.50;2.50;;;;;10.61;85.53;100582.81;5028561;28;9672;-64
2022/11/07 02:58:46;;;;;;;;;2.00;2.00;;;;;10.64;85.62;100579.72;5036828;28;9755;-65
2022/11/07 03:01:13;;;;;;;;;6.50;3.50;;;;;10.64;85.67;100580.56;5020839;28;9656;-65
2022/11/07 03:03:42;;;;;;;;;8.25;4.00;;;;;10.61;85.21;100589.06;5045496;28;9804;-65
2022/11/07 03:06:14;;;;;;;;;4.50;4.50;;;;;10.60;86.04;100600.00;5019712;28;9673;-65
2022/11/07 03:08:41;;;;;;;;;4.00;3.50;;;;;10.63;85.54;100592.34;5027721;28;9715;-66
2022/11/07 03:11:10;;;;;;;;;3.00;3.00;;;;;10.63;85.22;100605.00;5026731;28;9768;-66
2022/11/07 03:13:36;;;;;;;;;7.50;6.00;;;;;10.44;85.99;100606.53;5034670;28;9801;-66
2022/11/07 03:16:09;;;;;;;;;6.00;5.00;;;;;10.49;85.65;100608.63;5025468;28;9670;-66
2022/11/07 03:18:36;;;;;;;;;3.75;3.75;;;;;10.49;86.11;100605.94;5018861;28;9832;-66
2022/11/07 03:21:04;;;;;;;;;5.25;4.00;;;;;10.55;85.94;100605.16;5022855;28;10375;-66
2022/11/07 03:23:30;;;;;;;;;2.25;2.25;;;;;10.50;85.96;100599.56;5016485;28;10466;-66
2022/11/07 03:25:56;;;;;;;;;5.00;4.50;;;;;10.51;86.59;100606.59;5029994;28;9679;-66
2022/11/07 03:28:23;;;;;;;;;2.00;2.00;;;;;10.55;85.96;100594.41;5034129;28;9904;-66
2022/11/07 03:30:50;;;;;;;;;2.25;2.25;;;;;10.62;85.73;100597.94;5028455;28;9704;-66
2022/11/07 03:33:17;;;;;;;;;2.00;2.00;;;;;10.64;85.90;100610.16;5023000;28;9843;-66
2022/11/07 03:35:44;;;;;;;;;5.25;2.00;;;;;10.68;85.68;100625.91;5038054;28;9685;-68
2022/11/07 03:38:10;;;;;;;;;3.25;3.25;;;;;10.68;85.40;100612.47;5045973;28;9754;-64
2022/11/07 03:40:36;;;;;;;;;7.75;3.75;;;;;10.64;86.04;100618.25;5035252;28;9793;-66
2022/11/07 03:43:03;;;;;;;;;5.75;4.50;;;;;10.61;85.92;100615.09;5019994;28;9706;-65
2022/11/07 03:45:29;;;;;;;;;2.75;2.75;;;;;10.62;85.68;100606.84;5042616;28;9819;-65
2022/11/07 03:47:56;;;;;;;;;4.00;4.00;;;;;10.63;86.15;100607.69;5026935;28;9749;-65
2022/11/07 03:50:22;;;;;;;;;4.25;3.25;;;;;10.66;86.07;100625.31;5031756;28;9781;-65
2022/11/07 03:52:49;;;;;;;;;5.75;5.75;;;;;10.65;86.25;100624.44;5040087;28;9910;-66
2022/11/07 03:55:16;;;;;;;;;4.00;4.00;;;;;10.70;86.00;100611.25;5021558;28;9950;-66
2022/11/07 03:57:44;;;;;;;;;4.50;2.00;;;;;10.68;85.83;100612.47;5020188;28;9883;-66
2022/11/07 04:00:11;;;;;;;;;1.75;1.25;;;;;10.71;86.25;100614.75;5030305;28;9659;-66
2022/11/07 04:02:38;;;;;;;;;2.00;2.00;;;;;10.69;86.16;100609.56;5029313;28;10495;-66
2022/11/07 04:05:05;;;;;;;;;3.00;2.75;;;;;10.77;86.04;100606.69;5027933;28;10482;-67
2022/11/07 04:07:31;;;;;;;;;3.00;3.00;;;;;10.79;86.26;100617.28;5032278;28;9859;-66
2022/11/07 04:09:58;;;;;;;;;3.00;2.00;;;;;10.80;85.97;100619.75;5013387;28;9739;-66
2022/11/07 04:17:54;;;;;;;;;5.00;4.50;;;;;10.76;85.59;100637.34;5032407;28;9680;-66
2022/11/07 04:20:21;;;;;;;;;2.50;2.50;;;;;10.66;86.01;100636.91;5031733;28;9602;-66
2022/11/07 04:22:47;;;;;;;;;4.50;2.50;;;;;10.67;86.48;100643.09;5018015;28;9600;-66
2022/11/07 04:25:13;;;;;;;;;5.75;3.50;;;;;10.67;86.54;100633.16;5032813;28;9688;-66
2022/11/07 04:27:43;;;;;;;;;4.50;4.00;;;;;10.64;86.56;100637.06;5041491;28;9637;-66
2022/11/07 04:30:22;;;;;;;;;5.00;5.00;;;;;10.69;86.95;100636.47;5020356;28;9680;-66
2022/11/07 04:32:51;;;;;;;;;2.00;1.50;;;;;10.78;86.93;100629.91;5031127;28;9734;-67
2022/11/07 04:35:19;;;;;;;;;3.75;1.00;;;;;10.83;86.39;100622.06;5043397;28;9481;-67
2022/11/07 04:37:47;;;;;;;;;2.00;2.00;;;;;10.85;86.26;100629.91;5023721;28;9470;-67
2022/11/07 04:40:14;;;;;;;;;2.00;2.00;;;;;10.79;85.84;100620.78;5038938;28;9642;-66
2022/11/07 04:42:41;;;;;;;;;2.75;2.75;;;;;10.78;86.06;100623.69;5018831;28;9723;-66
2022/11/07 04:45:09;;;;;;;;;3.75;2.00;;;;;10.76;86.09;100620.34;5019114;28;10464;-67
2022/11/07 04:47:35;;;;;;;;;3.50;1.00;;;;;10.69;86.71;100620.31;5035131;28;10256;-67
2022/11/07 04:50:09;;;;;;;;;3.25;3.25;;;;;10.72;86.63;100619.94;5035327;28;9661;-67
2022/11/07 04:52:35;;;;;;;;;2.00;2.00;;;;;10.78;86.49;100605.69;5025400;28;9607;-66
2022/11/07 04:55:03;;;;;;;;;7.25;4.50;;;;;10.82;86.61;100625.78;5049341;28;9619;-66
2022/11/07 04:57:29;;;;;;;;;3.00;3.00;;;;;10.83;86.20;100613.97;5020390;28;9723;-66
2022/11/07 04:59:56;;;;;;;;;2.75;2.75;;;;;10.80;86.24;100618.94;5039053;28;9568;-66
2022/11/07 05:02:26;;;;;;;;;3.75;3.75;;;;;10.82;85.99;100616.88;5025043;28;9629;-66
2022/11/07 05:04:53;;;;;;;;;6.00;4.75;;;;;10.77;86.25;100622.84;5013180;28;9692;-66
2022/11/07 05:07:19;;;;;;;;;3.75;3.50;;;;;10.77;86.27;100616.63;5023870;28;9802;-66
2022/11/07 05:09:46;;;;;;;;;5.00;3.00;;;;;10.78;86.43;100624.53;5021301;28;9582;-66
2022/11/07 05:12:12;;;;;;;;;7.25;5.50;;;;;10.81;85.95;100612.50;5019303;28;9809;-67
2022/11/07 05:14:38;;;;;;;;;2.50;2.50;;;;;10.78;86.34;100616.44;5030222;28;9568;-66
2022/11/07 05:17:05;;;;;;;;;4.00;2.00;;;;;10.78;86.26;100615.63;5039338;28;9586;-66
2022/11/07 05:19:31;;;;;;;;;3.75;3.75;;;;;10.78;86.17;100626.38;5043452;28;9518;-66
2022/11/07 05:24:42;;;;;;;;;2.75;2.75;;;;;10.79;86.27;100631.56;5018647;28;9535;-66
2022/11/07 05:27:19;;;;;;;;;2.75;2.00;;;;;10.72;86.23;100640.63;5022547;28;9874;-66
2022/11/07 05:29:45;;;;;;;;;9.25;4.50;;;;;10.68;86.89;100629.44;5032225;28;9586;-66
2022/11/07 05:32:13;;;;;;;;;4.00;4.00;;;;;10.72;86.83;100629.88;5030014;28;10429;-66
2022/11/07 05:34:39;;;;;;;;;2.25;2.00;;;;;10.73;86.88;100632.34;5018089;28;9528;-66
2022/11/07 05:37:07;;;;;;;;;3.00;3.00;;;;;10.74;86.46;100634.03;5035120;28;9774;-66
2022/11/07 05:39:34;;;;;;;;;1.50;1.50;;;;;10.81;86.29;100632.19;5017560;28;10235;-67
2022/11/07 05:42:01;;;;;;;;;2.75;1.00;;;;;10.83;86.38;100615.84;5036394;28;9724;-66
2022/11/07 05:44:28;;;;;;;;;1.00;1.00;;;;;10.87;85.80;100607.16;5038740;28;9535;-67
2022/11/07 05:46:56;;;;;;;;;5.25;2.00;;;;;10.73;86.26;100618.88;5039999;28;9591;-66
2022/11/07 05:49:23;;;;;;;;;2.00;2.00;;;;;10.79;86.26;100620.78;5018928;28;9656;-66
2022/11/07 05:51:50;;;;;;;;;1.00;1.00;;;;;10.76;86.06;100618.50;5053747;23;9667;-64
2022/11/07 05:54:17;;;;;;;;;1.75;1.75;;;;;10.73;86.42;100626.13;5039318;28;9741;-64
2022/11/07 05:56:43;;;;;;;;;2.00;1.50;;;;;10.78;86.42;100623.69;5037456;28;9757;-64
2022/11/07 05:59:10;;;;;;;;;3.75;3.50;;;;;10.80;86.57;100627.00;5041185;28;9839;-63
2022/11/07 06:01:36;;;;;;;;;2.75;1.50;;;;;10.77;86.11;100622.84;5038864;28;9608;-63
2022/11/07 06:04:04;;;;;;;;;2.00;2.00;;;;;10.77;86.39;100624.72;5036717;28;9636;-63
2022/11/07 06:06:30;;;;;;;;;3.00;2.00;;;;;10.84;85.98;100617.50;5042113;28;9698;-63
2022/11/07 06:08:57;;;;;;;;;4.00;2.75;;;;;10.75;85.77;100622.22;5048678;28;9631;-64
2022/11/07 06:11:24;;;;;;;;;2.00;2.00;;;;;10.77;86.19;100639.00;5048874;28;9742;-63
2022/11/07 06:13:52;;;;;;;;;2.75;2.00;;;;;10.77;85.88;100630.91;5034488;28;9758;-63
2022/11/07 06:16:18;;;;;;;;;4.50;2.00;;;;;10.74;86.35;100638.59;5046743;28;9743;-63
2022/11/07 06:18:44;;;;;;;;;3.50;3.50;;;;;10.73;86.74;100632.34;5036810;28;9700;-64
2022/11/07 06:21:11;;;;;;;;;3.00;2.75;;;;;10.74;86.32;100638.59;5044889;28;9714;-64
2022/11/07 06:23:37;;;;;;;;;6.25;2.75;;;;;10.73;86.61;100642.28;5040644;28;9625;-64
2022/11/07 06:26:04;;;;;;;;;5.50;2.25;;;;;10.69;86.88;100633.78;5044001;28;9765;-63
2022/11/07 06:28:30;;;;;;;;;3.75;3.50;;;;;10.64;86.76;100644.31;5043731;28;10393;-63
2022/11/07 06:31:02;;;;;;;;;5.25;5.00;;;;;10.64;87.11;100638.94;5052294;28;9766;-63
2022/11/07 06:33:29;;;;;;;;;4.00;4.00;;;;;10.74;86.98;100646.66;5052195;28;9609;-64
2022/11/07 06:36:07;;;;;;;;;2.50;2.00;;;;;10.74;87.00;100646.66;5036035;28;9692;-63
2022/11/07 06:38:34;;;;;;;;;5.50;5.50;;;;;10.76;87.33;100645.41;5052871;28;9741;-65
2022/11/07 06:41:12;;;;;;;;;5.50;3.50;;;;;10.84;86.72;100656.03;5051927;28;9880;-63
2022/11/07 06:43:38;;;;;;;;;6.00;5.25;;;;;10.75;86.53;100651.00;5052998;28;9673;-64
2022/11/07 06:46:09;;;;;;;;;4.50;3.50;;;;;10.82;86.64;100652.72;5037941;28;9781;-64
2022/11/07 06:48:36;;;;;;;;;6.75;6.00;;;;;10.81;86.57;100647.50;5039945;28;9828;-64
2022/11/07 06:51:04;;;;;;;;;4.00;4.00;;;;;10.84;86.92;100645.25;5036560;28;9886;-63
2022/11/07 06:53:31;;;;;;;;;12.25;6.00;;;;;10.87;86.66;100646.72;5033585;28;9779;-64
2022/11/07 06:56:02;;;;;;;;;3.00;3.00;;;;;10.96;86.68;100658.16;5053797;28;9737;-64
2022/11/07 06:58:29;;;;;;;;;0.25;0.25;;;;;10.95;86.29;100660.00;5046663;28;9689;-64
2022/11/07 07:01:04;;;;;;;;;5.50;5.50;;;;;10.94;86.22;100661.06;5035199;28;9556;-64
2022/11/07 07:03:31;;;;;;;;;7.50;6.50;;;;;10.98;86.27;100658.75;5049138;28;9673;-64
2022/11/07 07:06:01;;;;;;;;;7.00;6.00;;;;;10.97;86.53;100665.19;5042717;28;9740;-64
2022/11/07 07:08:28;;;;;;;;;6.00;4.75;;;;;10.96;86.32;100668.91;5042902;28;9680;-63
2022/11/07 07:10:55;;;;;;;;;6.50;6.50;;;;;10.98;86.10;100672.22;5051457;28;9551;-65
2022/11/07 07:13:21;;;;;;;;;10.25;7.25;;;;;10.89;85.81;100675.09;5044174;28;9687;-65
2022/11/07 07:15:56;;;;;;;;;6.00;6.00;;;;;10.85;86.54;100675.69;5038834;28;9673;-63
2022/11/07 07:18:24;;;;;;;;;6.00;6.00;;;;;10.89;86.59;100675.09;5047570;28;9663;-64
2022/11/07 07:20:51;;;;;;;;;7.50;7.50;;;;;10.92;86.35;100681.13;5046145;28;9773;-64
2022/11/07 07:23:19;;;;;;;;;6.00;6.00;;;;;10.98;86.12;100675.78;5039343;28;9766;-64
2022/11/07 07:25:46;;;;;;;;;6.00;6.00;;;;;11.01;86.14;100680.75;5043872;28;9628;-65
2022/11/07 07:28:13;;;;;;;;;6.25;6.25;;;;;10.92;85.89;100683.81;5041161;28;9684;-64
2022/11/07 07:30:39;;;;;;;;;6.00;6.00;;;;;10.98;85.84;100677.59;5042727;28;9797;-65
2022/11/07 07:33:06;;;;;;;;;8.00;6.50;;;;;11.06;85.79;100685.50;5050930;28;9668;-65
2022/11/07 07:35:32;;;;;;;;;7.50;6.50;;;;;11.05;85.64;100681.16;5045872;28;9750;-62
2022/11/07 07:37:59;;;;;;;;;6.25;5.25;;;;;10.99;85.32;100690.06;5051807;28;9778;-64
2022/11/07 07:40:25;;;;;;;;;5.75;4.00;;;;;10.99;85.79;100685.50;5042170;28;9627;-65
2022/11/07 07:42:51;;;;;;;;;4.25;4.25;;;;;11.03;85.45;100694.84;5044309;28;10294;-64
2022/11/07 07:45:18;;;;;;;;;2.25;2.25;;;;;10.99;85.37;100700.84;5046446;28;9535;-64
2022/11/07 07:47:44;;;;;;;;;8.00;7.00;;;;;11.00;85.62;100699.81;5050766;28;9527;-64
2022/11/07 07:50:11;;;;;;;;;3.25;3.25;;;;;11.07;85.60;100712.28;5043275;28;9536;-64
2022/11/07 07:52:38;;;;;;;;;7.25;3.75;;;;;11.09;85.07;100712.06;5040607;28;9397;-64
2022/11/07 07:55:10;;;;;;;;;5.00;5.00;;;;;11.10;85.13;100714.56;5033349;28;9497;-65
2022/11/07 07:57:42;;;;;;;;;4.50;3.00;;;;;11.07;85.14;100719.53;5037954;28;9464;-65
2022/11/07 08:00:10;;;;;;;;;3.33;2.00;;;;;11.09;85.04;100714.75;5036544;28;9458;-64
2022/11/07 08:02:42;;;;;;;;;2.00;2.00;;;;;11.12;85.26;100722.44;5041452;28;9418;-65
2022/11/07 08:05:11;;;;;;;;;2.75;2.75;;;;;11.13;84.84;100724.91;5039634;28;9542;-64
2022/11/07 08:07:48;;;;;;;;;2.50;2.50;;;;;11.11;85.19;100732.38;5039548;28;9725;-63
2022/11/07 08:10:17;;;;;;;;;3.00;3.00;;;;;11.08;85.02;100730.09;5043862;28;9539;-64
2022/11/07 08:13:03;;;;;;;;;2.75;2.00;;;;;11.16;85.17;100745.25;5042816;28;9811;-64
2022/11/07 08:15:29;;;;;;;;;5.50;2.75;;;;;11.16;85.13;100747.94;5038633;28;9595;-65
2022/11/07 08:18:00;;;;;;;;;4.25;2.00;;;;;11.12;85.01;100750.22;5051560;28;10083;-65
2022/11/07 08:20:26;;;;;;;;;5.00;1.00;;;;;11.08;85.48;100758.91;5047792;28;9690;-64
2022/11/07 08:23:04;;;;;;;;;6.00;2.00;;;;;11.17;85.48;100770.34;5035456;28;9455;-64
2022/11/07 08:25:33;;;;;;;;;3.00;2.00;;;;;11.21;85.48;100755.44;5046324;28;9458;-65
2022/11/07 08:27:59;;;;;;;;;3.00;2.00;;;;;11.27;85.28;100771.63;5041768;28;9536;-65
2022/11/07 08:30:27;;;;;;;;;1.50;1.50;;;;;11.28;85.22;100770.59;5040348;28;9415;-65
2022/11/07 08:32:55;;;;;;;;;5.00;4.00;;;;;11.29;85.03;100769.56;5046819;28;9736;-64
2022/11/07 08:35:21;;;;;;;;;2.75;2.75;;;;;11.34;85.01;100764.41;5040982;28;10315;-63
2022/11/07 08:37:50;;;;;;;;;2.75;2.00;;;;;11.37;85.02;100773.94;5049344;28;9646;-63
2022/11/07 08:40:16;;;;;;;;;2.00;2.00;;;;;11.35;84.74;100766.06;5034401;28;9659;-64
2022/11/07 08:42:43;;;;;;;;;4.25;3.00;;;;;11.37;85.08;100763.16;5039498;28;9405;-64
2022/11/07 08:45:09;;;;;;;;;3.00;3.00;;;;;11.44;84.89;100766.72;5038332;28;9536;-63
2022/11/07 08:47:36;;;;;;;;;4.25;4.00;;;;;11.43;84.85;100764.25;5049418;28;9468;-65
2022/11/07 08:50:04;;;;;;;;;3.00;2.50;;;;;11.49;85.00;100783.13;5039644;28;9464;-65
2022/11/07 08:52:30;;;;;;;;;4.00;4.00;;;;;11.43;84.86;100781.25;5045330;28;9515;-64
2022/11/07 08:54:57;;;;;;;;;6.00;4.00;;;;;11.41;85.06;100777.06;5047665;28;9497;-64
2022/11/07 08:57:23;;;;;;;;;4.00;4.00;;;;;11.45;85.40;100786.41;5040611;28;9548;-65
2022/11/07 08:59:50;;;;;;;;;4.00;3.33;;;;;11.53;85.31;100780.84;5040057;28;9598;-65
2022/11/07 09:02:16;;;;;;;;;2.67;2.67;;;;;11.66;84.99;100796.25;5038613;28;9411;-65
2022/11/07 09:05:03;;;;;;;;;4.00;2.25;;;;;11.71;84.85;100791.91;5040333;28;9239;-65
2022/11/07 09:07:29;;;;;;;;;5.00;5.00;;;;;11.79;84.59;100789.03;5046791;28;9477;-64
2022/11/07 09:09:55;;;;;;;;;5.33;5.33;;;;;11.82;84.08;100788.59;5048119;28;9485;-64
2022/11/07 09:12:22;;;;;;;;;5.50;5.00;;;;;11.85;84.59;100792.81;5039440;28;9316;-65
2022/11/07 09:14:48;;;;;;;;;5.00;2.33;;;;;11.97;84.30;100788.47;5037230;28;9470;-65
2022/11/07 09:17:16;;;;;;;;;4.67;4.67;;;;;11.99;83.95;100789.13;5043122;28;9308;-63
2022/11/07 09:19:43;;;;;;;;;4.67;4.00;;;;;11.86;84.48;100789.88;5038711;28;9413;-64
2022/11/07 09:22:09;;;;;;;;;7.00;4.50;;;;;11.87;84.46;100798.84;5039552;28;10045;-64
2022/11/07 09:24:35;;;;;;;;;4.25;2.50;;;;;11.83;84.56;100800.28;5042620;28;9379;-65
2022/11/07 09:27:02;;;;;;;;;9.00;7.50;;;;;11.87;84.41;100802.38;5034681;28;10238;-64
2022/11/07 09:29:28;;;;;;;;;7.00;5.00;;;;;12.04;84.42;100791.19;5037658;28;9474;-64
2022/11/07 09:31:54;;;;;;;;;7.50;5.50;;;;;12.16;83.79;100794.13;5039571;28;9460;-64
2022/11/07 09:34:21;;;;;;;;;5.00;4.00;;;;;12.13;83.52;100800.75;5042342;28;9689;-64
2022/11/07 09:36:47;;;;;;;;;5.67;5.00;;;;;12.14;83.58;100797.00;5050886;28;9320;-64
2022/11/07 09:39:14;;;;;;;;;5.00;5.00;;;;;12.20;83.41;100796.19;5040021;28;9324;-65
2022/11/07 09:41:58;;;;;;;;;6.00;6.00;;;;;12.25;83.26;100799.09;5039687;28;9378;-64
2022/11/07 09:44:55;;;;;;;;;6.25;5.75;;;;;12.24;83.23;100802.84;5044667;28;9470;-65
2022/11/07 09:47:36;;;;;;;;;7.00;6.00;;;;;12.37;83.63;100807.41;5049544;28;10145;-64
2022/11/07 09:50:09;;;;;;;;;6.00;5.00;;;;;12.31;83.05;100810.94;5040913;28;9296;-64
2022/11/07 09:52:47;;;;;;;;;7.00;7.00;;;;;12.26;82.76;100810.72;5041351;28;10089;-65
2022/11/07 09:55:23;;;;;;;;;6.00;6.00;;;;;12.21;83.23;100811.34;5030932;28;9371;-65
2022/11/07 09:57:55;;;;;;;;;9.00;7.00;;;;;12.23;82.97;100820.06;5042732;28;9393;-64
2022/11/07 10:00:22;;;;;;;;;9.00;7.00;;;;;12.24;83.02;100821.72;5047605;28;9355;-64
2022/11/07 10:02:53;;;;;;;;;5.33;5.00;;;;;12.23;83.25;100828.16;5034756;28;9370;-64
2022/11/07 10:05:28;;;;;;;;;5.67;5.67;;;;;12.21;83.28;100843.72;5038945;28;9311;-65
2022/11/07 10:08:06;;;;;;;;;4.67;4.67;;;;;12.24;83.53;100846.03;5036705;28;10121;-64
2022/11/07 10:10:50;;;;;;;;;7.00;6.00;;;;;12.16;83.79;100846.22;5028259;28;9417;-64
2022/11/07 10:14:04;;;;;;;;;6.50;6.25;;;;;12.22;83.69;100852.66;5045087;28;9324;-65
2022/11/07 10:16:58;;;;;;;;;10.00;7.00;;;;;12.21;83.93;100857.22;5012936;28;9526;-65
2022/11/07 10:19:43;;;;;;;;;5.75;5.75;;;;;12.23;84.31;100849.75;5047304;28;9536;-65
2022/11/07 10:22:34;;;;;;;;;6.00;5.00;;;;;12.20;84.61;100854.75;5034559;28;9387;-66
2022/11/07 10:25:29;;;;;;;;;9.75;7.50;;;;;12.20;84.85;100854.75;5046161;28;9322;-65
2022/11/07 10:28:13;;;;;;;;;11.75;8.75;;;;;12.29;84.98;100834.59;5025299;28;9455;-65
2022/11/07 10:30:45;;;;;;;;;8.00;6.00;;;;;12.39;84.58;100851.22;5041956;28;9601;-66
2022/11/07 10:33:30;;;;;;;;;5.25;5.25;;;;;12.43;84.33;100846.25;5043444;28;9340;-65
2022/11/07 10:36:25;;;;;;;;;9.00;9.00;;;;;12.40;84.17;100857.44;5037677;28;9462;-65
2022/11/07 10:38:52;;;;;;;;;6.00;6.00;;;;;12.31;84.45;100852.25;5032170;28;9463;-65
2022/11/07 10:41:22;;;;;;;;;4.00;4.00;;;;;12.41;84.42;100851.84;5038751;28;9379;-65
2022/11/07 10:43:55;;;;;;;;;4.33;4.33;;;;;12.44;84.13;100864.13;5045346;28;9303;-65
2022/11/07 10:46:26;;;;;;;;;4.33;4.33;;;;;12.45;83.71;100861.22;5034778;28;9148;-65
2022/11/07 10:48:58;;;;;;;;;6.33;5.00;;;;;12.32;84.01;100864.72;5041037;28;9237;-66
2022/11/07 10:51:38;;;;;;;;;2.33;2.33;;;;;12.37;84.22;100872.19;5041722;28;10066;-65
2022/11/07 10:54:11;;;;;;;;;7.00;7.00;;;;;12.32;84.27;100869.28;5053213;28;9344;-64
2022/11/07 10:56:47;;;;;;;;;5.00;5.00;;;;;12.39;84.26;100864.72;5042495;28;9384;-64
2022/11/07 10:59:23;;;;;;;;;7.67;7.67;;;;;12.45;83.99;100873.88;5033622;28;9255;-65
2022/11/07 11:01:53;;;;;;;;;6.00;6.00;;;;;12.51;83.95;100862.25;5044696;28;9385;-65
2022/11/07 11:04:21;;;;;;;;;6.67;6.00;;;;;12.51;83.90;100867.63;5029201;28;9336;-65
2022/11/07 11:06:57;;;;;;;;;6.33;5.33;;;;;12.39;84.23;100870.13;5038448;28;9421;-66
2022/11/07 11:09:34;;;;;;;;;6.00;6.00;;;;;12.47;84.33;100866.38;5050847;28;9173;-66
2022/11/07 11:12:12;;;;;;;;;10.00;7.00;;;;;12.52;84.09;100872.84;5051168;28;9439;-66
2022/11/07 11:14:39;;;;;;;;;8.67;8.67;;;;;12.55;83.86;100864.31;5034571;28;9229;-66
2022/11/07 11:17:25;;;;;;;;;9.00;9.00;;;;;12.66;83.49;100867.44;5039596;28;9315;-66
2022/11/07 11:19:52;;;;;;;;;6.67;6.33;;;;;12.61;83.63;100863.50;5048268;28;9282;-66
2022/11/07 11:22:24;;;;;;;;;3.67;3.67;;;;;12.62;83.38;100867.03;5034465;28;9249;-66
2022/11/07 11:25:18;;;;;;;;;6.33;5.33;;;;;12.71;83.41;100867.66;5051655;28;9069;-66
2022/11/07 11:27:48;;;;;;;;;6.00;6.00;;;;;12.73;83.52;100869.13;5041864;28;9385;-66
2022/11/07 11:30:17;;;;;;;;;6.00;6.00;;;;;12.71;83.17;100863.06;5049006;28;9275;-65
2022/11/07 11:32:53;;;;;;;;;9.00;5.00;;;;;12.59;83.70;100873.66;5038034;28;9227;-66
2022/11/07 11:35:37;;;;;;;;;8.33;6.67;;;;;12.61;83.70;100865.38;5047381;28;9952;-66
2022/11/07 11:38:16;;;;;;;;;5.00;4.33;;;;;12.60;83.68;100861.84;5050582;28;9452;-66
2022/11/07 11:40:49;;;;;;;;;6.33;6.33;;;;;12.55;84.02;100863.50;5034733;28;9223;-65
2022/11/07 11:43:32;;;;;;;;;7.00;6.00;;;;;12.53;84.39;100866.41;5045851;28;9290;-65
2022/11/07 11:46:13;;;;;;;;;6.00;5.00;;;;;12.62;84.17;100865.16;5038364;28;9305;-65
2022/11/07 11:48:45;;;;;;;;;6.00;3.00;;;;;12.52;84.41;100859.34;5049826;28;9230;-66
2022/11/07 11:51:30;;;;;;;;;7.33;4.00;;;;;12.57;84.31;100877.63;5045599;28;9370;-65
2022/11/07 11:53:56;;;;;;;;;5.33;5.00;;;;;12.52;84.38;100883.66;5048191;28;9187;-65